Time;durP1;ratioP1;P1;durP2;ratioP2;P2;SDS_P1;SDS_P2;PMS_P1;PMS_P2;Temp;Humidity;BMP_temperature;BMP_pressure;BME280_temperature;BME280_humidity;BME280_pressure;Samples;Min_cycle;Max_cycle;Signal;HPM_P1;HPM_P2
2022/04/25 00:00:15;;;;;;;5.47;4.97;;;12.00;99.90;;;;;;2078075;28;20021;-69
2022/04/25 00:01:17;;;;;;;7.00;5.22;;;12.00;99.90;;;;;;2077113;28;20067;-68
2022/04/25 00:02:17;;;;;;;6.78;5.30;;;11.90;99.90;;;;;;2077965;28;20021;-69
2022/04/25 00:03:18;;;;;;;6.22;4.53;;;11.90;99.90;;;;;;2078586;28;20555;-69
2022/04/25 00:04:18;;;;;;;4.55;4.10;;;11.90;99.90;;;;;;2081427;28;20382;-68
2022/04/25 00:05:19;;;;;;;4.75;4.13;;;11.90;99.90;;;;;;2078904;28;20033;-68
2022/04/25 00:06:19;;;;;;;5.45;4.18;;;11.90;99.90;;;;;;2078095;28;20729;-69
2022/04/25 00:07:20;;;;;;;11.73;4.20;;;11.90;99.90;;;;;;2079323;28;20063;-69
2022/04/25 00:08:21;;;;;;;6.53;5.68;;;11.90;99.90;;;;;;2077263;28;20022;-68
2022/04/25 00:09:21;;;;;;;5.78;4.45;;;11.90;99.90;;;;;;2080370;28;20144;-69
2022/04/25 00:10:22;;;;;;;7.18;4.88;;;11.90;99.90;;;;;;2078086;28;20083;-69
2022/04/25 00:11:22;;;;;;;9.15;4.63;;;11.90;99.90;;;;;;2081126;28;20029;-69
2022/04/25 00:12:23;;;;;;;5.63;4.97;;;11.90;99.90;;;;;;2077773;28;20028;-69
2022/04/25 00:13:24;;;;;;;4.90;3.80;;;11.90;99.90;;;;;;2080595;28;20454;-69
2022/04/25 00:14:24;;;;;;;4.82;4.30;;;11.90;99.90;;;;;;2079916;28;20481;-69
2022/04/25 00:15:27;;;;;;;6.80;4.32;;;11.90;99.90;;;;;;2078040;28;20034;-69
2022/04/25 00:16:27;;;;;;;5.85;4.40;;;11.90;99.90;;;;;;2082562;28;20036;-69
2022/04/25 00:17:28;;;;;;;5.00;4.60;;;12.00;99.90;;;;;;2077940;28;20018;-69
2022/04/25 00:18:29;;;;;;;5.32;4.50;;;11.90;99.90;;;;;;2078771;28;20017;-69
2022/04/25 00:19:29;;;;;;;4.18;3.83;;;12.00;99.90;;;;;;2080085;28;20056;-69
2022/04/25 00:20:30;;;;;;;4.10;3.70;;;12.00;99.90;;;;;;2079030;28;20028;-69
2022/04/25 00:21:30;;;;;;;5.80;3.75;;;11.90;99.90;;;;;;2077787;28;20056;-69
2022/04/25 00:22:31;;;;;;;4.65;3.70;;;12.00;99.90;;;;;;2076776;28;20022;-69
2022/04/25 00:23:32;;;;;;;3.92;3.63;;;12.00;99.90;;;;;;2081474;28;20075;-69
2022/04/25 00:24:32;;;;;;;6.63;3.75;;;12.00;99.90;;;;;;2076058;28;20033;-69
2022/04/25 00:25:35;;;;;;;4.70;3.83;;;12.00;99.90;;;;;;2076563;28;20033;-69
2022/04/25 00:26:35;;;;;;;5.68;4.07;;;12.00;99.90;;;;;;2078333;28;20483;-69
2022/04/25 00:27:36;;;;;;;4.57;4.18;;;12.00;99.90;;;;;;2079526;28;20048;-69
2022/04/25 00:28:36;;;;;;;3.97;3.63;;;12.00;99.90;;;;;;2079574;28;20033;-69
2022/04/25 00:29:37;;;;;;;4.30;3.90;;;12.00;99.90;;;;;;2079322;28;20025;-69
2022/04/25 00:30:37;;;;;;;3.83;3.30;;;12.00;99.90;;;;;;2080968;28;20065;-69
2022/04/25 00:31:39;;;;;;;4.35;3.72;;;12.00;99.90;;;;;;2079611;28;20041;-69
2022/04/25 00:32:39;;;;;;;3.95;3.53;;;12.00;99.90;;;;;;2079961;28;20025;-68
2022/04/25 00:33:40;;;;;;;4.18;3.78;;;12.00;99.90;;;;;;2078157;28;20057;-69
2022/04/25 00:34:40;;;;;;;3.67;3.00;;;12.00;99.90;;;;;;2077809;28;20030;-69
2022/04/25 00:35:44;;;;;;;6.90;3.83;;;12.00;99.90;;;;;;2078001;28;20061;-69
2022/04/25 00:36:44;;;;;;;4.30;3.90;;;12.00;99.90;;;;;;2077395;28;20037;-69
2022/04/25 00:37:45;;;;;;;8.95;4.28;;;12.00;99.90;;;;;;2082605;28;20032;-69
2022/04/25 00:38:45;;;;;;;5.45;4.32;;;12.00;99.90;;;;;;2081810;28;20033;-69
2022/04/25 00:39:46;;;;;;;4.53;3.95;;;12.00;99.90;;;;;;2078502;28;20523;-69
2022/04/25 00:40:46;;;;;;;7.25;4.60;;;12.00;99.90;;;;;;2079354;28;20485;-69
2022/04/25 00:41:47;;;;;;;5.78;4.35;;;12.00;99.90;;;;;;2078472;28;20504;-69
2022/04/25 00:42:48;;;;;;;5.53;4.43;;;11.90;99.90;;;;;;2077475;28;20051;-69
2022/04/25 00:43:53;;;;;;;5.57;4.50;;;11.90;99.90;;;;;;2079421;28;20018;-69
2022/04/25 00:44:54;;;;;;;7.95;4.60;;;11.80;99.90;;;;;;2081993;28;20025;-69
2022/04/25 00:45:55;;;;;;;4.90;4.50;;;11.80;99.90;;;;;;2081628;28;20014;-69
2022/04/25 00:46:56;;;;;;;5.15;4.65;;;11.80;99.90;;;;;;2076821;28;20038;-69
2022/04/25 00:47:58;;;;;;;4.10;3.75;;;11.80;99.90;;;;;;2078793;28;20446;-69
2022/04/25 00:48:59;;;;;;;4.97;4.20;;;11.80;99.90;;;;;;2078489;28;20025;-69
2022/04/25 00:49:59;;;;;;;4.57;3.88;;;11.70;99.90;;;;;;2079755;28;20079;-69
2022/04/25 00:51:00;;;;;;;4.90;4.35;;;11.70;99.90;;;;;;2081119;28;20123;-69
2022/04/25 00:52:00;;;;;;;4.60;3.90;;;11.60;99.90;;;;;;2076963;28;20025;-69
2022/04/25 00:53:01;;;;;;;3.85;3.55;;;11.60;99.90;;;;;;2078769;28;20122;-69
2022/04/25 00:54:02;;;;;;;6.78;4.57;;;11.60;99.90;;;;;;2081567;28;20022;-69
2022/04/25 00:55:06;;;;;;;4.47;4.07;;;11.60;99.90;;;;;;2076919;28;20546;-69
2022/04/25 00:56:08;;;;;;;4.35;3.95;;;11.50;99.90;;;;;;2077275;28;20048;-69
2022/04/25 00:57:09;;;;;;;4.47;4.07;;;11.50;99.90;;;;;;2079392;28;20029;-69
2022/04/25 00:58:12;;;;;;;4.38;3.97;;;11.50;99.90;;;;;;2079348;28;20029;-69
2022/04/25 00:59:16;;;;;;;6.40;4.18;;;11.50;99.90;;;;;;2079744;28;20068;-69
2022/04/25 01:00:16;;;;;;;4.18;3.78;;;11.50;99.90;;;;;;2079471;28;20022;-68
2022/04/25 01:01:18;;;;;;;4.57;4.07;;;11.40;99.90;;;;;;2080636;28;20025;-69
2022/04/25 01:02:18;;;;;;;4.32;3.83;;;11.40;99.90;;;;;;2081289;28;20041;-69
2022/04/25 01:03:19;;;;;;;5.25;3.97;;;11.40;99.90;;;;;;2078947;28;20032;-69
2022/04/25 01:04:20;;;;;;;7.28;4.20;;;11.40;99.90;;;;;;2079193;28;20018;-69
2022/04/25 01:05:21;;;;;;;4.63;4.22;;;11.40;99.90;;;;;;2079497;28;20028;-69
2022/04/25 01:06:21;;;;;;;4.68;4.20;;;11.40;99.90;;;;;;2081636;28;20032;-69
2022/04/25 01:07:22;;;;;;;3.33;3.00;;;11.30;99.90;;;;;;2078686;28;20030;-69
2022/04/25 01:08:22;;;;;;;4.60;3.97;;;11.30;99.90;;;;;;2082274;28;20030;-69
2022/04/25 01:09:25;;;;;;;5.72;3.92;;;11.40;99.90;;;;;;2078694;28;20040;-69
2022/04/25 01:10:26;;;;;;;7.15;4.80;;;11.40;99.90;;;;;;2078870;28;20056;-69
2022/04/25 01:11:27;;;;;;;5.75;4.18;;;11.40;99.90;;;;;;2073620;28;20548;-69
2022/04/25 01:12:28;;;;;;;4.95;4.47;;;11.40;99.90;;;;;;2075834;28;20029;-69
2022/04/25 01:13:29;;;;;;;4.82;4.22;;;11.40;99.90;;;;;;2080760;28;20060;-69
2022/04/25 01:14:30;;;;;;;4.80;4.40;;;11.40;99.90;;;;;;2076527;28;20037;-69
2022/04/25 01:15:31;;;;;;;4.60;4.15;;;11.40;99.90;;;;;;2075618;28;20033;-69
2022/04/25 01:16:31;;;;;;;4.10;3.75;;;11.40;99.90;;;;;;2078400;28;20044;-69
2022/04/25 01:17:32;;;;;;;5.47;4.55;;;11.40;99.90;;;;;;2082472;28;20032;-69
2022/04/25 01:18:33;;;;;;;5.47;5.00;;;11.30;99.90;;;;;;2076650;28;20025;-69
2022/04/25 01:19:34;;;;;;;4.70;4.22;;;11.30;99.90;;;;;;2079265;28;20083;-69
2022/04/25 01:20:35;;;;;;;4.78;4.28;;;11.30;99.90;;;;;;2078734;28;20021;-69
2022/04/25 01:21:53;;;;;;;4.40;4.03;;;11.30;99.90;;;;;;2078155;28;20067;-69
2022/04/25 01:22:56;;;;;;;4.10;3.80;;;11.20;99.90;;;;;;2078190;28;20057;-69
2022/04/25 01:27:54;;;;;;;4.65;3.83;;;11.00;99.90;;;;;;2080909;28;20108;-69
2022/04/25 01:28:58;;;;;;;4.07;3.60;;;10.90;99.90;;;;;;2078945;28;20042;-69
2022/04/25 01:29:58;;;;;;;4.80;4.30;;;11.00;99.90;;;;;;2079524;28;20071;-69
2022/04/25 01:30:59;;;;;;;5.45;4.43;;;10.90;99.90;;;;;;2081442;28;20147;-69
2022/04/25 01:31:59;;;;;;;4.53;4.13;;;10.90;99.90;;;;;;2079170;28;20022;-69
2022/04/25 01:33:00;;;;;;;4.75;4.35;;;10.90;99.90;;;;;;2079425;28;20764;-69
2022/04/25 01:34:01;;;;;;;4.10;3.70;;;10.80;99.90;;;;;;2079242;28;20053;-69
2022/04/25 01:35:02;;;;;;;4.60;4.20;;;10.90;99.90;;;;;;2080888;28;20026;-69
2022/04/25 01:36:03;;;;;;;4.80;4.30;;;10.80;99.90;;;;;;2075902;28;20033;-69
2022/04/25 01:37:08;;;;;;;4.57;4.20;;;10.80;99.90;;;;;;2077675;28;20714;-69
2022/04/25 01:38:09;;;;;;;5.03;4.47;;;10.80;99.90;;;;;;2080523;28;20025;-69
2022/04/25 01:39:09;;;;;;;4.72;4.22;;;10.80;99.90;;;;;;2081469;28;20029;-69
2022/04/25 01:40:10;;;;;;;6.00;5.13;;;10.80;99.90;;;;;;2081186;28;20026;-69
2022/04/25 01:41:11;;;;;;;4.60;4.20;;;10.80;99.90;;;;;;2082093;28;20026;-69
2022/04/25 01:42:12;;;;;;;4.90;4.50;;;10.80;99.90;;;;;;2082433;28;20092;-69
2022/04/25 01:43:13;;;;;;;5.05;4.65;;;10.80;99.90;;;;;;2082275;28;20018;-69
2022/04/25 01:44:14;;;;;;;4.20;3.90;;;10.80;99.90;;;;;;2081767;28;20020;-69
2022/04/25 01:45:14;;;;;;;4.82;4.32;;;10.70;99.90;;;;;;2077217;28;20022;-69
2022/04/25 01:46:15;;;;;;;4.88;4.47;;;10.70;99.90;;;;;;2080499;28;20591;-69
2022/04/25 01:47:16;;;;;;;8.90;4.38;;;10.70;99.90;;;;;;2081699;28;20022;-69
2022/04/25 01:48:17;;;;;;;4.85;4.45;;;10.70;99.90;;;;;;2081511;28;20051;-69
2022/04/25 01:49:17;;;;;;;4.80;4.40;;;10.70;99.90;;;;;;2081551;28;20100;-69
2022/04/25 01:50:18;;;;;;;5.00;4.60;;;10.60;99.90;;;;;;2078365;28;20113;-69
2022/04/25 01:51:20;;;;;;;6.35;5.03;;;10.60;99.90;;;;;;2079100;28;20021;-69
2022/04/25 01:52:30;;;;;;;7.70;4.70;;;10.60;99.90;;;;;;2079867;28;20035;-69
2022/04/25 01:53:31;;;;;;;5.70;5.20;;;10.60;99.90;;;;;;2079157;28;20014;-69
2022/04/25 01:54:32;;;;;;;6.18;5.68;;;10.50;99.90;;;;;;2082421;28;20048;-69
2022/04/25 01:55:32;;;;;;;5.68;5.10;;;10.60;99.90;;;;;;2081969;28;20021;-69
2022/04/25 01:56:34;;;;;;;5.63;5.13;;;10.60;99.90;;;;;;2081751;28;20046;-69
2022/04/25 01:57:35;;;;;;;6.03;5.53;;;10.60;99.90;;;;;;2079425;28;20021;-69
2022/04/25 01:58:35;;;;;;;6.47;5.85;;;10.60;99.90;;;;;;2079389;28;20029;-69
2022/04/25 01:59:36;;;;;;;6.15;5.60;;;10.60;99.90;;;;;;2079472;28;20074;-69
2022/04/25 02:00:37;;;;;;;6.30;5.70;;;10.60;99.90;;;;;;2083784;28;20428;-69
2022/04/25 02:01:37;;;;;;;7.13;5.97;;;10.60;99.90;;;;;;2080149;28;20061;-69
2022/04/25 02:02:38;;;;;;;8.30;6.07;;;10.50;99.90;;;;;;2079152;28;20026;-69
2022/04/25 02:03:40;;;;;;;6.30;5.80;;;10.60;99.90;;;;;;2080433;28;20070;-69
2022/04/25 02:04:41;;;;;;;7.70;6.95;;;10.50;99.90;;;;;;2080544;28;20062;-68
2022/04/25 02:05:42;;;;;;;7.47;6.88;;;10.50;99.90;;;;;;2079887;28;20100;-69
2022/04/25 02:06:42;;;;;;;7.80;7.00;;;10.50;99.90;;;;;;2079616;28;20026;-69
2022/04/25 02:07:43;;;;;;;8.18;6.97;;;10.50;99.90;;;;;;2079890;28;20025;-69
2022/04/25 02:08:44;;;;;;;7.72;7.07;;;10.50;99.90;;;;;;2080155;28;20038;-69
2022/04/25 02:09:45;;;;;;;7.68;7.00;;;10.50;99.90;;;;;;2080577;28;20021;-69
2022/04/25 02:11:19;;;;;;;8.10;7.40;;;10.50;99.90;;;;;;2082495;28;20087;-69
2022/04/25 02:12:06;;;;;;;;;;;10.50;99.90;;;;;;2083532;28;20061;-69
2022/04/25 02:13:06;;;;;;;7.05;6.40;;;10.40;99.90;;;;;;2079749;28;19917;-69
2022/04/25 02:14:07;;;;;;;6.32;5.72;;;10.40;99.90;;;;;;2079167;28;20096;-69
2022/04/25 02:15:12;;;;;;;6.75;6.07;;;10.40;99.90;;;;;;2080549;28;20035;-69
2022/04/25 02:16:13;;;;;;;6.55;5.95;;;10.40;99.90;;;;;;2081355;28;20037;-69
2022/04/25 02:17:14;;;;;;;6.47;5.68;;;10.40;99.90;;;;;;2078867;28;20026;-69
2022/04/25 02:18:16;;;;;;;6.75;5.40;;;10.50;99.90;;;;;;2080007;28;20022;-69
2022/04/25 02:19:17;;;;;;;7.60;5.15;;;10.50;99.90;;;;;;2078415;28;20025;-69
2022/04/25 02:20:17;;;;;;;5.28;4.38;;;10.50;99.90;;;;;;2081140;28;20546;-69
2022/04/25 02:21:18;;;;;;;5.03;4.50;;;10.50;99.90;;;;;;2081582;28;20029;-69
2022/04/25 02:22:19;;;;;;;4.60;4.20;;;10.50;99.90;;;;;;2081643;28;20512;-69
2022/04/25 02:23:20;;;;;;;4.47;4.07;;;10.60;99.90;;;;;;2082007;28;20376;-69
2022/04/25 02:24:20;;;;;;;4.60;4.20;;;10.60;99.90;;;;;;2079681;28;20072;-69
2022/04/25 02:25:21;;;;;;;4.43;4.03;;;10.60;99.90;;;;;;2081000;28;20025;-69
2022/04/25 02:26:22;;;;;;;5.00;4.05;;;10.60;99.90;;;;;;2080239;28;20064;-69
2022/04/25 02:27:23;;;;;;;4.00;3.70;;;10.70;99.90;;;;;;2079966;28;20456;-69
2022/04/25 02:28:23;;;;;;;4.38;4.07;;;10.70;99.90;;;;;;2081698;28;20106;-69
2022/04/25 02:29:25;;;;;;;4.88;4.03;;;10.70;99.90;;;;;;2079941;28;20026;-69
2022/04/25 02:30:26;;;;;;;4.78;4.22;;;10.80;99.90;;;;;;2079573;28;20381;-69
2022/04/25 02:31:26;;;;;;;3.95;3.65;;;10.80;99.90;;;;;;2078486;28;20025;-69
2022/04/25 02:32:28;;;;;;;5.05;4.65;;;10.80;99.90;;;;;;2080281;28;20028;-69
2022/04/25 02:33:28;;;;;;;4.35;4.05;;;10.80;99.90;;;;;;2082073;28;20102;-69
2022/04/25 02:34:31;;;;;;;4.32;4.03;;;10.90;99.90;;;;;;2082150;28;20497;-69
2022/04/25 02:35:31;;;;;;;4.10;3.65;;;10.90;99.90;;;;;;2079298;28;20654;-69
2022/04/25 02:36:32;;;;;;;4.50;4.10;;;10.90;99.90;;;;;;2079890;28;22477;-69
2022/04/25 02:37:32;;;;;;;4.50;4.18;;;10.90;99.90;;;;;;2079239;28;20029;-69
2022/04/25 02:38:34;;;;;;;4.72;4.20;;;11.00;99.90;;;;;;2081016;28;20029;-69
2022/04/25 02:39:35;;;;;;;4.32;3.72;;;11.00;99.90;;;;;;2076419;28;20025;-69
2022/04/25 02:40:36;;;;;;;4.90;4.50;;;11.00;99.90;;;;;;2077816;28;20087;-69
2022/04/25 02:41:36;;;;;;;4.13;3.83;;;11.00;99.90;;;;;;2076852;28;20463;-69
2022/04/25 02:42:38;;;;;;;4.90;4.50;;;11.00;99.90;;;;;;2083377;28;20053;-69
2022/04/25 02:43:41;;;;;;;5.70;5.20;;;11.00;99.90;;;;;;2081575;28;20029;-69
2022/04/25 02:44:41;;;;;;;5.20;4.80;;;11.00;99.90;;;;;;2083045;28;20061;-69
2022/04/25 02:45:42;;;;;;;4.45;4.07;;;11.00;99.90;;;;;;2079126;28;20022;-69
2022/04/25 02:46:42;;;;;;;4.68;4.28;;;11.10;99.90;;;;;;2080855;28;20075;-69
2022/04/25 02:47:44;;;;;;;5.13;4.72;;;11.10;99.90;;;;;;2079349;28;20033;-68
2022/04/25 02:48:46;;;;;;;7.25;5.90;;;11.10;99.90;;;;;;2080245;28;20128;-68
2022/04/25 02:49:46;;;;;;;5.53;5.13;;;11.10;99.90;;;;;;2077758;28;20026;-68
2022/04/25 02:50:48;;;;;;;5.55;5.15;;;11.00;99.90;;;;;;2081922;28;20097;-68
2022/04/25 02:51:48;;;;;;;5.85;5.35;;;11.00;99.90;;;;;;2080210;28;20507;-69
2022/04/25 02:52:53;;;;;;;5.20;4.80;;;11.00;99.90;;;;;;2080265;28;20111;-68
2022/04/25 02:53:53;;;;;;;5.95;5.45;;;11.00;99.90;;;;;;2080291;28;20029;-68
2022/04/25 02:54:54;;;;;;;6.45;5.82;;;11.00;99.90;;;;;;2079466;28;20029;-69
2022/04/25 02:55:55;;;;;;;6.45;5.88;;;11.00;99.90;;;;;;2078618;28;20085;-69
2022/04/25 02:56:55;;;;;;;7.50;6.80;;;11.00;99.90;;;;;;2079025;28;20022;-69
2022/04/25 02:57:56;;;;;;;6.60;6.05;;;11.00;99.90;;;;;;2080701;28;20108;-69
2022/04/25 02:58:56;;;;;;;6.78;6.18;;;11.10;99.90;;;;;;2082592;28;20028;-69
2022/04/25 02:59:57;;;;;;;8.20;6.95;;;11.00;99.90;;;;;;2080612;28;20036;-68
2022/04/25 03:00:58;;;;;;;7.20;6.57;;;11.10;99.90;;;;;;2081177;28;20025;-68
2022/04/25 03:01:59;;;;;;;8.15;7.40;;;11.10;99.90;;;;;;2081757;28;20104;-68
2022/04/25 03:03:00;;;;;;;9.00;8.20;;;11.10;99.90;;;;;;2081637;28;20135;-69
2022/04/25 03:04:00;;;;;;;8.90;8.00;;;11.00;99.90;;;;;;2080465;28;20033;-69
2022/04/25 03:05:01;;;;;;;9.43;8.52;;;11.10;99.90;;;;;;2081364;28;20726;-69
2022/04/25 03:06:03;;;;;;;9.43;8.55;;;11.00;99.90;;;;;;2081105;28;20041;-69
2022/04/25 03:07:04;;;;;;;10.20;9.20;;;11.00;99.90;;;;;;2082259;28;20017;-69
2022/04/25 03:08:05;;;;;;;10.30;9.40;;;11.00;99.90;;;;;;2081136;28;20469;-69
2022/04/25 03:09:05;;;;;;;9.73;8.88;;;10.90;99.90;;;;;;2079857;28;20049;-69
2022/04/25 03:10:06;;;;;;;10.40;9.50;;;11.00;99.90;;;;;;2079252;28;20750;-69
2022/04/25 03:11:08;;;;;;;11.70;10.57;;;10.90;99.90;;;;;;2080397;28;20047;-69
2022/04/25 03:12:09;;;;;;;11.50;10.50;;;10.90;99.90;;;;;;2079068;28;20044;-69
2022/04/25 03:13:11;;;;;;;11.23;10.23;;;10.90;99.90;;;;;;2078449;28;20111;-69
2022/04/25 03:14:11;;;;;;;11.27;10.32;;;10.90;99.90;;;;;;2079662;28;20026;-69
2022/04/25 03:15:12;;;;;;;12.02;10.93;;;10.80;99.90;;;;;;2078922;28;20029;-69
2022/04/25 03:16:13;;;;;;;12.60;11.50;;;10.80;99.90;;;;;;2079000;28;20040;-69
2022/04/25 03:17:13;;;;;;;14.98;13.57;;;10.80;99.90;;;;;;2077713;28;20495;-69
2022/04/25 03:18:19;;;;;;;14.05;12.70;;;10.80;99.90;;;;;;2075669;28;20030;-69
2022/04/25 03:19:19;;;;;;;13.95;12.75;;;10.80;99.90;;;;;;2076880;28;20033;-69
2022/04/25 03:20:20;;;;;;;14.45;13.07;;;10.80;99.90;;;;;;2080597;28;20053;-69
2022/04/25 03:21:20;;;;;;;14.85;13.32;;;10.80;99.90;;;;;;2077699;28;20025;-69
2022/04/25 03:22:21;;;;;;;16.20;14.57;;;10.80;99.90;;;;;;2079751;28;20124;-69
2022/04/25 03:23:22;;;;;;;16.08;14.52;;;10.80;99.90;;;;;;2080245;28;20401;-69
2022/04/25 03:24:23;;;;;;;16.75;15.20;;;10.80;99.90;;;;;;2080374;28;20092;-69
2022/04/25 03:25:24;;;;;;;15.23;13.93;;;10.80;99.90;;;;;;2078274;28;20018;-69
2022/04/25 03:26:24;;;;;;;15.10;13.70;;;10.80;99.90;;;;;;2077872;28;20020;-69
2022/04/25 03:27:25;;;;;;;13.35;12.13;;;10.80;99.90;;;;;;2075967;28;20040;-69
2022/04/25 03:28:25;;;;;;;15.60;14.20;;;10.80;99.90;;;;;;2077863;28;20047;-69
2022/04/25 03:29:26;;;;;;;15.60;14.20;;;10.90;99.90;;;;;;2078532;28;20029;-69
2022/04/25 03:30:27;;;;;;;14.18;12.93;;;10.90;99.90;;;;;;2082862;28;20021;-69
2022/04/25 03:31:28;;;;;;;13.00;11.80;;;10.90;99.90;;;;;;2081872;28;20017;-69
2022/04/25 03:32:28;;;;;;;11.85;10.75;;;10.90;99.90;;;;;;2080182;28;20020;-69
2022/04/25 03:33:31;;;;;;;13.15;9.73;;;10.90;99.90;;;;;;2078457;28;20025;-69
2022/04/25 03:34:31;;;;;;;12.43;11.27;;;10.90;99.90;;;;;;2076124;28;20021;-69
2022/04/25 03:35:32;;;;;;;12.13;11.07;;;10.90;99.90;;;;;;2078799;28;20071;-69
2022/04/25 03:36:33;;;;;;;12.77;11.38;;;10.90;99.90;;;;;;2077308;28;20095;-69
2022/04/25 03:37:36;;;;;;;10.02;9.02;;;11.00;99.90;;;;;;2078550;28;20033;-69
2022/04/25 03:38:38;;;;;;;8.57;7.75;;;11.00;99.90;;;;;;2079592;28;20018;-69
2022/04/25 03:39:39;;;;;;;9.57;8.77;;;11.00;99.90;;;;;;2079607;28;20022;-69
2022/04/25 03:40:40;;;;;;;8.20;7.50;;;11.10;99.90;;;;;;2080129;28;20125;-69
2022/04/25 03:41:40;;;;;;;9.15;8.35;;;11.10;99.90;;;;;;2078212;28;20061;-69
2022/04/25 03:42:42;;;;;;;9.60;8.80;;;11.10;99.90;;;;;;2079485;28;20037;-69
2022/04/25 03:43:43;;;;;;;9.90;9.00;;;11.10;99.90;;;;;;2078337;28;20060;-69
2022/04/25 03:44:45;;;;;;;9.05;8.35;;;11.10;99.90;;;;;;2079313;28;20510;-69
2022/04/25 03:45:45;;;;;;;9.10;7.88;;;11.10;99.90;;;;;;2082703;28;20071;-69
2022/04/25 03:46:46;;;;;;;8.02;7.30;;;11.20;99.90;;;;;;2081599;28;20029;-69
2022/04/25 03:47:46;;;;;;;10.68;9.60;;;11.20;99.90;;;;;;2078023;28;20057;-69
2022/04/25 03:48:47;;;;;;;11.05;10.02;;;11.20;99.90;;;;;;2079356;28;20428;-69
2022/04/25 03:49:47;;;;;;;10.02;9.23;;;11.20;99.90;;;;;;2080638;28;20021;-69
2022/04/25 03:50:48;;;;;;;10.43;9.52;;;11.20;99.90;;;;;;2078517;28;20067;-69
2022/04/25 03:51:48;;;;;;;10.75;9.75;;;11.20;99.90;;;;;;2079193;28;20026;-69
2022/04/25 03:52:49;;;;;;;10.68;9.75;;;11.20;99.90;;;;;;2079715;28;20029;-69
2022/04/25 03:53:50;;;;;;;11.10;10.00;;;11.20;99.90;;;;;;2081384;28;20026;-69
2022/04/25 03:57:29;;;;;;;8.43;7.65;;;11.20;99.90;;;;;;2082190;28;20057;-69
2022/04/25 03:58:31;;;;;;;8.63;7.93;;;11.20;99.90;;;;;;2078879;28;20017;-68
2022/04/25 03:59:31;;;;;;;10.73;9.70;;;11.30;99.90;;;;;;2082933;28;20033;-69
2022/04/25 04:00:33;;;;;;;12.48;11.35;;;11.30;99.90;;;;;;2079028;28;20103;-69
2022/04/25 04:01:35;;;;;;;13.02;11.77;;;11.30;99.90;;;;;;2075759;28;20064;-68
2022/04/25 04:02:36;;;;;;;9.38;8.48;;;11.30;99.90;;;;;;2080352;28;20029;-68
2022/04/25 04:03:36;;;;;;;12.43;11.18;;;11.30;99.90;;;;;;2082130;28;20018;-68
2022/04/25 04:04:37;;;;;;;11.18;10.18;;;11.30;99.90;;;;;;2078720;28;20026;-68
2022/04/25 04:05:37;;;;;;;10.90;9.90;;;11.30;99.90;;;;;;2077829;28;20028;-68
2022/04/25 04:06:38;;;;;;;10.27;9.27;;;11.30;99.90;;;;;;2079727;28;20044;-68
2022/04/25 04:07:40;;;;;;;11.82;10.48;;;11.30;99.90;;;;;;2079401;28;20023;-68
2022/04/25 04:08:40;;;;;;;9.48;8.68;;;11.30;99.90;;;;;;2078625;28;20074;-68
2022/04/25 04:09:47;;;;;;;9.88;8.98;;;11.30;99.90;;;;;;2079321;28;20469;-68
2022/04/25 04:10:48;;;;;;;10.55;9.55;;;11.30;99.90;;;;;;2080904;28;20113;-69
2022/04/25 04:11:48;;;;;;;8.75;7.93;;;11.30;99.90;;;;;;2079637;28;20032;-69
2022/04/25 04:12:49;;;;;;;10.05;9.02;;;11.30;99.90;;;;;;2077001;28;20037;-68
2022/04/25 04:13:49;;;;;;;11.77;10.70;;;11.30;99.90;;;;;;2078169;28;20096;-68
2022/04/25 04:14:50;;;;;;;11.63;10.60;;;11.30;99.90;;;;;;2077589;28;20075;-68
2022/04/25 04:15:53;;;;;;;10.02;9.20;;;11.40;99.90;;;;;;2077362;28;20033;-68
2022/04/25 04:16:53;;;;;;;9.05;8.25;;;11.40;99.90;;;;;;2079085;28;20089;-68
2022/04/25 04:17:54;;;;;;;9.52;8.73;;;11.40;99.90;;;;;;2078921;28;20424;-68
2022/04/25 04:18:54;;;;;;;10.73;9.75;;;11.40;99.90;;;;;;2079466;28;21032;-68
2022/04/25 04:19:55;;;;;;;11.82;10.52;;;11.40;99.90;;;;;;2079099;28;20026;-68
2022/04/25 04:20:55;;;;;;;11.45;10.05;;;11.40;99.90;;;;;;2078948;28;20506;-68
2022/04/25 04:21:56;;;;;;;8.75;7.95;;;11.40;99.90;;;;;;2079105;28;20698;-68
2022/04/25 04:22:56;;;;;;;9.25;8.45;;;11.40;99.90;;;;;;2078674;28;20087;-68
2022/04/25 04:23:59;;;;;;;12.07;10.88;;;11.40;99.90;;;;;;2079531;28;20474;-68
2022/04/25 04:25:01;;;;;;;11.43;10.35;;;11.40;99.90;;;;;;2079088;28;20381;-68
2022/04/25 04:26:01;;;;;;;14.50;11.35;;;11.40;99.90;;;;;;2077585;28;20028;-68
2022/04/25 04:27:04;;;;;;;11.23;10.02;;;11.40;99.90;;;;;;2081047;28;20125;-68
2022/04/25 04:28:06;;;;;;;12.13;10.93;;;11.50;99.90;;;;;;2077056;28;20104;-68
2022/04/25 04:29:07;;;;;;;12.40;11.20;;;11.40;99.90;;;;;;2079128;28;20017;-68
2022/04/25 04:30:10;;;;;;;12.32;11.13;;;11.50;99.90;;;;;;2076092;28;20041;-68
2022/04/25 04:31:10;;;;;;;12.73;11.63;;;11.50;99.90;;;;;;2081927;28;20032;-68
2022/04/25 04:32:14;;;;;;;12.85;11.57;;;11.50;99.90;;;;;;2079080;28;20056;-68
2022/04/25 04:33:14;;;;;;;12.48;11.30;;;11.50;99.90;;;;;;2080310;28;20384;-68
2022/04/25 04:34:15;;;;;;;11.73;10.70;;;11.50;99.90;;;;;;2080310;28;20033;-68
2022/04/25 04:36:17;;;;;;;11.48;10.48;;;11.40;99.90;;;;;;2080060;28;20040;-68
2022/04/25 04:36:38;;;;;;;11.75;10.40;;;11.40;99.90;;;;;;2078304;28;20048;-68
2022/04/25 04:37:40;;;;;;;11.48;10.30;;;11.40;99.90;;;;;;2076803;28;20116;-68
2022/04/25 04:38:40;;;;;;;11.05;10.05;;;11.40;99.90;;;;;;2078715;28;20029;-68
2022/04/25 04:39:41;;;;;;;11.80;10.68;;;11.40;99.90;;;;;;2078724;28;20059;-68
2022/04/25 04:40:41;;;;;;;13.73;12.35;;;11.40;99.90;;;;;;2079384;28;20033;-68
2022/04/25 04:41:42;;;;;;;16.05;14.38;;;11.40;99.90;;;;;;2081397;28;20042;-69
2022/04/25 04:42:43;;;;;;;16.85;14.90;;;11.40;99.90;;;;;;2078825;28;20642;-68
2022/04/25 04:43:43;;;;;;;17.20;15.55;;;11.40;99.90;;;;;;2078783;28;20108;-68
2022/04/25 04:44:45;;;;;;;17.95;16.10;;;11.40;99.90;;;;;;2078306;28;20468;-68
2022/04/25 04:45:46;;;;;;;15.65;14.15;;;11.40;99.90;;;;;;2079228;28;20064;-69
2022/04/25 04:46:47;;;;;;;15.32;13.93;;;11.40;99.90;;;;;;2079202;28;20022;-69
2022/04/25 04:47:47;;;;;;;15.45;13.88;;;11.40;99.90;;;;;;2079103;28;20056;-68
2022/04/25 04:48:48;;;;;;;15.95;13.88;;;11.30;99.90;;;;;;2078154;28;20029;-68
2022/04/25 04:49:48;;;;;;;15.20;13.70;;;11.30;99.90;;;;;;2078546;28;20029;-68
2022/04/25 04:50:55;;;;;;;15.07;13.68;;;11.30;99.90;;;;;;2078922;28;20033;-68
2022/04/25 04:51:55;;;;;;;15.52;13.90;;;11.30;99.90;;;;;;2077869;28;20033;-68
2022/04/25 04:52:58;;;;;;;13.00;11.93;;;11.30;99.90;;;;;;2079799;28;20520;-69
2022/04/25 04:53:59;;;;;;;14.60;13.10;;;11.30;99.90;;;;;;2078762;28;20044;-68
2022/04/25 04:55:00;;;;;;;14.82;13.27;;;11.30;99.90;;;;;;2077566;28;20029;-69
2022/04/25 04:56:00;;;;;;;14.50;13.10;;;11.30;99.90;;;;;;2078436;28;20101;-68
2022/04/25 04:57:01;;;;;;;12.98;11.75;;;11.30;99.90;;;;;;2079848;28;20033;-68
2022/04/25 04:58:02;;;;;;;13.63;12.05;;;11.30;99.90;;;;;;2077924;28;20029;-68
2022/04/25 04:59:03;;;;;;;15.13;12.82;;;11.30;99.90;;;;;;2076683;28;20021;-68
2022/04/25 05:00:09;;;;;;;13.65;12.25;;;11.30;99.90;;;;;;2079042;28;20053;-68
2022/04/25 05:01:09;;;;;;;11.85;10.75;;;11.30;99.90;;;;;;2078001;28;20029;-68
2022/04/25 05:02:10;;;;;;;12.05;10.85;;;11.30;99.90;;;;;;2079783;28;20503;-69
2022/04/25 05:03:13;;;;;;;12.95;11.65;;;11.30;99.90;;;;;;2077730;28;20100;-68
2022/04/25 05:04:14;;;;;;;12.75;11.55;;;11.30;99.90;;;;;;2079056;28;20380;-68
2022/04/25 05:05:14;;;;;;;13.43;12.02;;;11.30;99.90;;;;;;2079007;28;20144;-68
2022/04/25 05:06:15;;;;;;;14.20;12.73;;;11.30;99.90;;;;;;2077255;28;20029;-68
2022/04/25 05:07:16;;;;;;;13.00;11.70;;;11.30;99.90;;;;;;2081551;28;20036;-69
2022/04/25 05:08:17;;;;;;;14.38;12.88;;;11.30;99.90;;;;;;2080300;28;20022;-68
2022/04/25 05:09:17;;;;;;;13.25;11.85;;;11.30;99.90;;;;;;2076759;28;20072;-68
2022/04/25 05:10:18;;;;;;;12.38;11.07;;;11.30;99.90;;;;;;2079544;28;20030;-68
2022/04/25 05:11:18;;;;;;;12.90;11.57;;;11.30;99.90;;;;;;2078327;28;20136;-68
2022/04/25 05:12:20;;;;;;;13.32;11.93;;;11.30;99.90;;;;;;2081509;28;20106;-68
2022/04/25 05:13:21;;;;;;;11.93;10.82;;;11.30;99.90;;;;;;2079576;28;20037;-68
2022/04/25 05:14:21;;;;;;;13.52;12.13;;;11.30;99.90;;;;;;2081237;28;20476;-68
2022/04/25 05:15:22;;;;;;;10.95;9.85;;;11.30;99.90;;;;;;2077934;28;20026;-68
2022/04/25 05:16:23;;;;;;;10.65;8.98;;;11.30;99.90;;;;;;2081191;28;20052;-68
2022/04/25 05:17:23;;;;;;;10.50;9.43;;;11.30;99.90;;;;;;2079017;28;20082;-68
2022/04/25 05:18:24;;;;;;;10.98;9.98;;;11.30;99.90;;;;;;2080333;28;20585;-68
2022/04/25 05:19:25;;;;;;;11.57;10.52;;;11.30;99.90;;;;;;2079813;28;20097;-69
2022/04/25 05:20:25;;;;;;;11.07;10.07;;;11.30;99.90;;;;;;2081041;28;20036;-68
2022/04/25 05:21:26;;;;;;;11.20;10.10;;;11.30;99.90;;;;;;2079153;28;20071;-68
2022/04/25 05:22:26;;;;;;;10.85;9.25;;;11.30;99.90;;;;;;2078474;28;20028;-68